Wichita Mid Continent Airport
KICT : now visible

Aeroporto :











RITROVATECI SU...

 
LOGIN :

Iscrizione | Disclaimer

   EN    FR    IT 

 









Sommario :    VFR   VFR Marginale   IFR   IFR Intensivo   IFR Molto Intensivo
Visibilità : 
Base nubi : 
>= 8 km
>= 3000ft
5 / 8 km
1000 / 3000 ft
1500m / 5 km
500 / 1000 ft
800 / 1500m
200 / 500 ft
< 800m
< 200 ft
Simboli :   Temporali  Nebbia  Neve Forte  Precipitazioni Forti  Vento > 20 kt






- Altitudine del aeroporto : 1333 ft
- Codice IATA : ICT


KICT - Wichita Mid Continent

ULTIMO METAR :
  • 202153Z 20014G21KT 10SM SCT110 37/18 A2957 RMK AO2 SLP995 T03720178

METARs OBSOLETI :
  • 202053Z 22013G26KT 10SM FEW075 38/18 A2958 RMK AO2 PK WND 19027/2025 SLP996 T03830183 56015
  • 201953Z 19017G24KT 10SM FEW070 37/19 A2959 RMK AO2 SLP001 T03720189

TAF KICT
Valido dal 20 a 18 ore il 21 a 18 ore UTC


201722Z 2018/2118 21015G23KT P6SM SCT200
FM202300 26013KT P6SM VCTS BKN070CB
TEMPO 2023/2101 4SM -TSRA BR BKN035CB
FM210100 35016G24KT P6SM VCTS BKN070CB
TEMPO 2101/2104 4SM -TSRA BR BKN035CB
FM210600 02010KT P6SM VCTS BKN080CB BKN120
FM210900 02014G22KT P6SM -SHRA VCTS BKN070CB
FM211400 02016G24KT P6SM OVC050
FM211600 01012KT P6SM BKN035
FIR KZKC / America del Nord



MetMap, La meteo Aeronautica in un colpo d'occhio ! - Copyright ORBIFLY Dicembre 2007 - Disclaimer

ORBIFLY MET'MAP TEAM :

Programmazione e sviluppo : Alexandra Zaïnal
Concezione : Baudouin d'Aumeries
Aiuto per la programmazione : Marc-Olivier Méhu
Supporto tecnico e logistico : Manuel Goepfert
Aiuto per la traduzione : Arnaldo La Scala

Contatto : metmap@orbifly.com




FONTI E CREDITI :

   NOAA       Earth
Advisory